Rawlins Municipal Harvey Field Rawlins US
ICAO: KRWL
IATA: RWL
Category: Medium
Scheduled Services: No

Elevation: 6813 ft
TransAlt. 18000 ft.

Airport Communications:
ASOS:118.525
DENVER CNTR:132.1
CASPER RDO:122.2
CTAF/UNICOM:123

KRWL Zoom In..

If you have problems with the map follow the link
https://www.worldairports.se/pages/airport.php?
ICAO=KRWL

Runways:

(A) RW 04 length 7008 ft width 100 ft
---- / hdg 41

(B) RW 10 length 4322 ft width 60 ft
---- / hdg 102

(C) RW 22 length 7008 ft width 100 ft
---- / hdg 221

(D) RW 28 length 4322 ft width 60 ft
---- / hdg 282

Location; KRWL
Day. 23 / Time. 22.53 Zulu
* Altimeter: 30.13
* Temperature: 00° c. 32°f.
* Wind from: 260° Speed 19 kn with Gusts up to 24 kn.
Dewpoint: -04° c.
Visibility: 10 Statute Miles.
Clouds: Overcast 7000 ft.

KRWL 232253Z AUTO 26019G24KT 10SM OVC070 00/M04 A3013 RMK AO2 SLP234 T00001044


Wind From 260°
Speed 19 kn.

 
 
jpsmedia worldairports.se 2020   terms of use